Time;durP1;ratioP1;P1;durP2;ratioP2;P2;SDS_P1;SDS_P2;PMS_P1;PMS_P2;Temp;Humidity;BMP_temperature;BMP_pressure;BME280_temperature;BME280_humidity;BME280_pressure;Samples;Min_cycle;Max_cycle;Signal;HPM_P1;HPM_P2
2021/11/15 00:01:13;;;;;;;5.60;5.07;;;;;;;;;;5056816;28;20655;-85
2021/11/15 00:03:40;;;;;;;5.57;5.07;;;;;;;;;;5056941;28;20723;-84
2021/11/15 00:06:08;;;;;;;7.25;6.07;;;;;;;;;;5057013;28;20360;-84
2021/11/15 00:08:36;;;;;;;6.47;5.40;;;;;;;;;;5056977;28;20223;-84
2021/11/15 00:11:04;;;;;;;5.30;4.80;;;;;;;;;;5057245;28;20201;-84
2021/11/15 00:13:31;;;;;;;5.82;5.22;;;;;;;;;;5056790;28;20206;-84
2021/11/15 00:16:01;;;;;;;5.07;4.68;;;;;;;;;;5058125;28;20229;-84
2021/11/15 00:18:28;;;;;;;7.53;6.03;;;;;;;;;;5057427;28;20222;-84
2021/11/15 00:20:56;;;;;;;9.38;6.90;;;;;;;;;;5056904;28;20200;-85
2021/11/15 00:23:23;;;;;;;7.35;6.63;;;;;;;;;;5057791;28;20182;-84
2021/11/15 00:25:51;;;;;;;6.65;5.72;;;;;;;;;;5057328;28;20201;-84
2021/11/15 00:28:19;;;;;;;8.23;6.47;;;;;;;;;;5056964;28;20217;-85
2021/11/15 00:30:47;;;;;;;7.88;6.97;;;;;;;;;;5055480;28;20249;-85
2021/11/15 00:33:15;;;;;;;6.93;5.35;;;;;;;;;;5055843;28;20212;-84
2021/11/15 00:35:43;;;;;;;5.93;5.32;;;;;;;;;;5055416;28;20276;-84
2021/11/15 00:38:10;;;;;;;7.68;6.55;;;;;;;;;;5055970;28;20490;-85
2021/11/15 00:40:38;;;;;;;7.82;7.03;;;;;;;;;;5058282;28;20211;-85
2021/11/15 00:43:06;;;;;;;7.57;6.18;;;;;;;;;;5059936;28;20210;-85
2021/11/15 00:45:34;;;;;;;5.38;4.85;;;;;;;;;;5059197;28;20220;-84
2021/11/15 00:48:02;;;;;;;5.22;4.63;;;;;;;;;;5058437;28;20604;-85
2021/11/15 00:50:31;;;;;;;6.60;5.93;;;;;;;;;;5058179;28;20554;-85
2021/11/15 00:52:59;;;;;;;6.97;5.90;;;;;;;;;;5059516;28;20178;-84
2021/11/15 00:55:27;;;;;;;7.97;5.95;;;;;;;;;;5058863;28;20182;-85
2021/11/15 00:57:54;;;;;;;8.70;6.75;;;;;;;;;;5059299;28;20249;-85
2021/11/15 01:00:26;;;;;;;8.38;6.10;;;;;;;;;;5060344;28;20186;-84
2021/11/15 01:02:54;;;;;;;7.38;6.57;;;;;;;;;;5059688;28;20446;-85
2021/11/15 01:05:22;;;;;;;7.78;6.10;;;;;;;;;;5059681;28;20186;-84
2021/11/15 01:07:51;;;;;;;9.10;7.05;;;;;;;;;;5059846;28;20231;-84
2021/11/15 01:10:21;;;;;;;8.25;7.45;;;;;;;;;;5058713;28;20221;-85
2021/11/15 01:12:49;;;;;;;8.25;7.43;;;;;;;;;;5059556;28;20185;-85
2021/11/15 01:15:21;;;;;;;7.15;6.32;;;;;;;;;;5059916;28;20204;-84
2021/11/15 01:17:49;;;;;;;6.35;5.65;;;;;;;;;;5060323;28;20175;-84
2021/11/15 01:20:20;;;;;;;7.72;6.93;;;;;;;;;;5059731;28;20200;-84
2021/11/15 01:22:47;;;;;;;8.80;7.40;;;;;;;;;;5059832;28;20221;-85
2021/11/15 01:25:17;;;;;;;8.57;6.35;;;;;;;;;;5059087;28;20198;-85
2021/11/15 01:27:45;;;;;;;8.60;6.90;;;;;;;;;;5059392;28;20266;-84
2021/11/15 01:30:16;;;;;;;7.53;6.60;;;;;;;;;;5059377;28;20193;-85
2021/11/15 01:32:44;;;;;;;7.88;7.00;;;;;;;;;;5059123;28;20181;-85
2021/11/15 01:35:12;;;;;;;7.97;7.20;;;;;;;;;;5057889;28;20181;-84
2021/11/15 01:37:40;;;;;;;7.72;6.60;;;;;;;;;;5058679;28;20182;-84
2021/11/15 01:40:10;;;;;;;8.82;7.55;;;;;;;;;;5058301;28;20650;-84
2021/11/15 01:42:39;;;;;;;6.60;6.00;;;;;;;;;;5058452;28;20190;-84
2021/11/15 01:45:09;;;;;;;9.85;6.88;;;;;;;;;;5057732;28;20196;-84
2021/11/15 01:47:37;;;;;;;7.30;6.55;;;;;;;;;;5058379;28;20208;-84
2021/11/15 01:50:10;;;;;;;7.95;7.07;;;;;;;;;;5059526;28;20182;-84
2021/11/15 01:52:38;;;;;;;8.25;6.53;;;;;;;;;;5057831;28;20209;-84
2021/11/15 01:55:08;;;;;;;12.65;8.50;;;;;;;;;;5057761;28;20208;-85
2021/11/15 01:57:35;;;;;;;7.78;6.82;;;;;;;;;;5059068;28;20182;-84
2021/11/15 02:00:06;;;;;;;8.65;7.70;;;;;;;;;;5058457;28;20622;-83
2021/11/15 02:02:34;;;;;;;9.90;8.38;;;;;;;;;;5057042;28;20636;-84
2021/11/15 02:05:01;;;;;;;10.77;8.50;;;;;;;;;;5058118;28;20681;-84
2021/11/15 02:07:29;;;;;;;10.90;7.57;;;;;;;;;;5058443;28;20660;-85
2021/11/15 02:09:56;;;;;;;8.60;7.13;;;;;;;;;;5059626;28;20201;-85
2021/11/15 02:12:25;;;;;;;7.57;6.32;;;;;;;;;;5058772;28;20221;-84
2021/11/15 02:14:53;;;;;;;8.65;7.15;;;;;;;;;;5058371;28;20189;-85
2021/11/15 02:17:22;;;;;;;9.88;8.02;;;;;;;;;;5058303;28;20182;-85
2021/11/15 02:19:49;;;;;;;9.32;7.80;;;;;;;;;;5057785;28;20692;-85
2021/11/15 02:22:18;;;;;;;8.50;7.28;;;;;;;;;;5058020;28;20190;-84
2021/11/15 02:24:46;;;;;;;6.85;5.88;;;;;;;;;;5058077;28;20204;-84
2021/11/15 02:27:13;;;;;;;6.93;6.25;;;;;;;;;;5058499;28;20216;-85
2021/11/15 02:29:41;;;;;;;8.07;6.80;;;;;;;;;;5057182;28;20604;-84
2021/11/15 02:32:09;;;;;;;8.13;6.75;;;;;;;;;;5056672;28;20205;-84
2021/11/15 02:34:36;;;;;;;8.65;6.82;;;;;;;;;;5057847;28;20206;-84
2021/11/15 02:37:04;;;;;;;6.15;5.38;;;;;;;;;;5057519;28;20178;-84
2021/11/15 02:39:33;;;;;;;7.88;6.68;;;;;;;;;;5056884;28;20233;-84
2021/11/15 02:42:01;;;;;;;7.13;5.75;;;;;;;;;;5056161;28;20189;-84
2021/11/15 02:44:29;;;;;;;9.32;7.38;;;;;;;;;;5056350;28;20220;-85
2021/11/15 02:46:56;;;;;;;9.15;7.13;;;;;;;;;;5057363;28;20202;-84
2021/11/15 02:49:24;;;;;;;7.53;6.00;;;;;;;;;;5058268;28;20312;-85
2021/11/15 02:51:51;;;;;;;7.93;6.95;;;;;;;;;;5059161;28;20208;-84
2021/11/15 02:54:20;;;;;;;7.22;6.47;;;;;;;;;;5058960;28;20174;-84
2021/11/15 02:56:49;;;;;;;6.93;5.47;;;;;;;;;;5060187;28;20198;-84
2021/11/15 02:59:16;;;;;;;7.03;6.32;;;;;;;;;;5058173;28;20232;-84
2021/11/15 03:01:47;;;;;;;6.10;5.50;;;;;;;;;;5058346;28;20186;-84
2021/11/15 03:04:14;;;;;;;6.50;5.57;;;;;;;;;;5057660;28;20224;-85
2021/11/15 03:06:42;;;;;;;7.13;6.43;;;;;;;;;;5057477;28;20192;-84
2021/11/15 03:09:09;;;;;;;5.82;5.22;;;;;;;;;;5057287;28;20210;-84
2021/11/15 03:11:37;;;;;;;8.10;7.22;;;;;;;;;;5056228;28;20605;-86
2021/11/15 03:14:06;;;;;;;8.75;7.13;;;;;;;;;;5055512;28;20570;-87
2021/11/15 03:16:33;;;;;;;8.48;6.45;;;;;;;;;;5054940;28;20189;-85
2021/11/15 03:19:01;;;;;;;8.07;7.32;;;;;;;;;;5055953;28;20218;-85
2021/11/15 03:21:28;;;;;;;9.95;7.28;;;;;;;;;;5057061;28;20280;-86
2021/11/15 03:23:58;;;;;;;10.23;8.10;;;;;;;;;;5056410;28;20298;-85
2021/11/15 03:26:27;;;;;;;8.98;7.50;;;;;;;;;;5057800;28;20204;-85
2021/11/15 03:28:56;;;;;;;9.52;8.43;;;;;;;;;;5057296;28;20218;-85
2021/11/15 03:31:29;;;;;;;9.10;7.32;;;;;;;;;;5058124;28;20194;-86
2021/11/15 03:34:00;;;;;;;10.13;7.70;;;;;;;;;;5057810;28;20186;-86
2021/11/15 03:36:29;;;;;;;9.00;7.50;;;;;;;;;;5058036;28;20178;-85
2021/11/15 03:38:58;;;;;;;10.20;7.30;;;;;;;;;;5058214;28;20240;-86
2021/11/15 03:41:31;;;;;;;10.40;8.05;;;;;;;;;;5057407;28;20205;-86
2021/11/15 03:43:59;;;;;;;13.98;10.02;;;;;;;;;;5058035;28;20205;-85
2021/11/15 03:46:28;;;;;;;11.70;8.43;;;;;;;;;;5057420;28;20220;-86
2021/11/15 03:48:55;;;;;;;7.95;5.93;;;;;;;;;;5056738;28;20239;-86
2021/11/15 03:51:23;;;;;;;9.68;7.90;;;;;;;;;;5057780;28;20566;-86
2021/11/15 03:53:51;;;;;;;10.68;8.65;;;;;;;;;;5058149;28;20212;-85
2021/11/15 03:56:23;;;;;;;12.40;8.88;;;;;;;;;;5056658;28;20225;-86
2021/11/15 03:58:51;;;;;;;12.57;7.93;;;;;;;;;;5056912;28;20279;-86
2021/11/15 04:01:21;;;;;;;9.73;6.38;;;;;;;;;;5057562;28;20182;-86
2021/11/15 04:03:50;;;;;;;12.43;9.85;;;;;;;;;;5058015;28;20186;-86
2021/11/15 04:06:24;;;;;;;11.77;8.63;;;;;;;;;;5057891;28;20208;-86
2021/11/15 04:08:52;;;;;;;10.48;6.78;;;;;;;;;;5057282;28;20264;-86
2021/11/15 04:11:21;;;;;;;9.70;7.13;;;;;;;;;;5058345;28;20182;-86
2021/11/15 04:13:52;;;;;;;9.77;7.68;;;;;;;;;;5058354;28;20213;-86
2021/11/15 04:16:20;;;;;;;12.07;7.82;;;;;;;;;;5061528;28;20201;-86
2021/11/15 04:18:55;;;;;;;10.50;8.07;;;;;;;;;;5060283;28;20722;-85
2021/11/15 04:21:23;;;;;;;9.18;7.57;;;;;;;;;;5061529;28;20209;-86
2021/11/15 04:23:51;;;;;;;10.52;6.93;;;;;;;;;;5062217;28;20188;-85
2021/11/15 04:26:18;;;;;;;9.65;7.47;;;;;;;;;;5061238;28;20879;-86
2021/11/15 04:28:46;;;;;;;8.15;6.72;;;;;;;;;;5061503;28;20696;-86
2021/11/15 04:31:14;;;;;;;10.07;7.55;;;;;;;;;;5061272;28;20185;-85
2021/11/15 04:33:41;;;;;;;13.20;8.43;;;;;;;;;;5061998;28;20212;-85
2021/11/15 04:36:11;;;;;;;10.60;8.07;;;;;;;;;;5061288;28;20201;-85
2021/11/15 04:38:39;;;;;;;8.43;6.72;;;;;;;;;;5060318;28;20312;-85
2021/11/15 04:41:06;;;;;;;10.70;7.68;;;;;;;;;;5060903;28;20739;-85
2021/11/15 04:43:34;;;;;;;9.85;7.20;;;;;;;;;;5060779;28;20196;-85
2021/11/15 04:46:01;;;;;;;10.85;7.78;;;;;;;;;;5061499;28;20182;-86
2021/11/15 04:48:29;;;;;;;14.02;9.02;;;;;;;;;;5060768;28;20305;-85
2021/11/15 04:50:57;;;;;;;9.93;6.97;;;;;;;;;;5061458;28;20189;-85
2021/11/15 04:53:26;;;;;;;9.68;7.22;;;;;;;;;;5060803;28;20297;-85
2021/11/15 04:55:53;;;;;;;9.80;7.40;;;;;;;;;;5061356;28;20188;-85
2021/11/15 04:58:22;;;;;;;13.55;8.10;;;;;;;;;;5061032;28;20228;-85
2021/11/15 05:00:49;;;;;;;11.05;6.53;;;;;;;;;;5061901;28;20193;-85
2021/11/15 05:03:17;;;;;;;10.00;7.38;;;;;;;;;;5061437;28;20285;-85
2021/11/15 05:05:45;;;;;;;10.80;7.57;;;;;;;;;;5060970;28;20206;-85
2021/11/15 05:08:12;;;;;;;10.32;6.80;;;;;;;;;;5060801;28;20306;-85
2021/11/15 05:10:42;;;;;;;9.70;7.00;;;;;;;;;;5060706;28;20272;-85
2021/11/15 05:13:10;;;;;;;8.95;6.15;;;;;;;;;;5061036;28;20222;-85
2021/11/15 05:15:37;;;;;;;9.75;6.82;;;;;;;;;;5060632;28;20538;-85
2021/11/15 05:18:05;;;;;;;8.27;6.30;;;;;;;;;;5060553;28;20600;-85
2021/11/15 05:20:32;;;;;;;9.30;5.70;;;;;;;;;;5060613;28;20607;-85
2021/11/15 05:23:00;;;;;;;9.27;5.50;;;;;;;;;;5060447;28;20265;-85
2021/11/15 05:25:27;;;;;;;7.72;6.30;;;;;;;;;;5060510;28;20181;-85
2021/11/15 05:27:57;;;;;;;7.68;5.85;;;;;;;;;;5061064;28;20218;-85
2021/11/15 05:30:25;;;;;;;7.47;6.07;;;;;;;;;;5060476;28;20613;-85
2021/11/15 05:32:55;;;;;;;7.25;5.72;;;;;;;;;;5059852;28;20634;-85
2021/11/15 05:35:24;;;;;;;7.25;5.43;;;;;;;;;;5059841;28;20190;-85
2021/11/15 05:37:52;;;;;;;7.82;5.60;;;;;;;;;;5059487;28;20214;-85
2021/11/15 05:40:21;;;;;;;6.70;4.90;;;;;;;;;;5060121;28;20219;-85
2021/11/15 05:42:48;;;;;;;10.32;5.70;;;;;;;;;;5060206;28;20192;-85
2021/11/15 05:45:17;;;;;;;8.35;5.82;;;;;;;;;;5060593;28;20201;-85
2021/11/15 05:47:45;;;;;;;7.13;5.38;;;;;;;;;;5059853;28;20202;-86
2021/11/15 05:50:14;;;;;;;6.38;4.75;;;;;;;;;;5060121;28;20190;-86
2021/11/15 05:52:43;;;;;;;8.00;5.10;;;;;;;;;;5059961;28;20182;-86
2021/11/15 05:55:20;;;;;;;6.97;5.75;;;;;;;;;;5059967;28;20217;-86
2021/11/15 05:57:48;;;;;;;8.75;6.80;;;;;;;;;;5060224;28;20205;-86
2021/11/15 06:00:20;;;;;;;6.97;5.38;;;;;;;;;;5060189;28;20190;-85
2021/11/15 06:02:48;;;;;;;7.28;6.20;;;;;;;;;;5060277;28;20206;-86
2021/11/15 06:05:15;;;;;;;10.20;6.85;;;;;;;;;;5058535;28;20185;-86
2021/11/15 06:07:43;;;;;;;8.02;6.10;;;;;;;;;;5060435;28;20218;-85
2021/11/15 06:10:12;;;;;;;10.20;6.63;;;;;;;;;;5060586;28;20293;-85
2021/11/15 06:12:40;;;;;;;6.28;5.68;;;;;;;;;;5059782;28;20178;-85
2021/11/15 06:15:10;;;;;;;7.53;6.22;;;;;;;;;;5060986;28;20209;-85
2021/11/15 06:17:41;;;;;;;7.25;5.93;;;;;;;;;;5063216;28;20186;-86
2021/11/15 06:20:13;;;;;;;7.78;6.20;;;;;;;;;;5061826;28;20190;-85
2021/11/15 06:22:41;;;;;;;5.50;4.93;;;;;;;;;;5063301;28;20194;-85
2021/11/15 06:25:11;;;;;;;9.65;6.45;;;;;;;;;;5058714;28;20268;-85
2021/11/15 06:27:39;;;;;;;9.20;6.22;;;;;;;;;;5058249;28;20674;-85
2021/11/15 06:30:12;;;;;;;9.80;7.10;;;;;;;;;;5058874;28;20197;-86
2021/11/15 06:32:42;;;;;;;9.32;6.97;;;;;;;;;;5058739;28;20210;-85
2021/11/15 06:35:11;;;;;;;9.25;7.22;;;;;;;;;;5058753;28;20213;-86
2021/11/15 06:37:40;;;;;;;12.63;8.00;;;;;;;;;;5058701;28;20190;-86
2021/11/15 06:40:09;;;;;;;10.82;7.72;;;;;;;;;;5060090;28;20253;-86
2021/11/15 06:42:37;;;;;;;10.68;7.40;;;;;;;;;;5059059;28;20204;-85
2021/11/15 06:45:06;;;;;;;9.57;7.40;;;;;;;;;;5060461;28;20189;-86
2021/11/15 06:47:35;;;;;;;11.48;7.70;;;;;;;;;;5061014;28;20209;-85
2021/11/15 06:50:07;;;;;;;13.55;8.73;;;;;;;;;;5058234;28;20201;-85
2021/11/15 06:52:35;;;;;;;12.68;8.13;;;;;;;;;;5058273;28;20202;-85
2021/11/15 06:55:04;;;;;;;13.45;7.75;;;;;;;;;;5038633;28;20206;-85
2021/11/15 06:57:31;;;;;;;9.52;8.02;;;;;;;;;;5038447;28;20202;-84
2021/11/15 06:59:59;;;;;;;10.95;8.18;;;;;;;;;;5038748;28;20202;-85
2021/11/15 07:02:26;;;;;;;9.52;6.90;;;;;;;;;;5039473;28;20197;-85
2021/11/15 07:04:54;;;;;;;13.75;8.52;;;;;;;;;;5039165;28;20186;-85
2021/11/15 07:07:23;;;;;;;11.95;9.52;;;;;;;;;;5043613;28;20200;-86
2021/11/15 07:09:50;;;;;;;12.55;10.02;;;;;;;;;;5059223;28;20226;-84
2021/11/15 07:12:18;;;;;;;11.77;8.98;;;;;;;;;;5058356;28;20656;-85
2021/11/15 07:14:45;;;;;;;14.95;10.20;;;;;;;;;;5059729;28;20205;-85
2021/11/15 07:17:13;;;;;;;12.07;8.32;;;;;;;;;;5058684;28;20620;-85
2021/11/15 07:19:40;;;;;;;15.38;8.95;;;;;;;;;;5057931;28;20722;-86
2021/11/15 07:22:08;;;;;;;14.80;8.75;;;;;;;;;;5060498;28;20178;-85
2021/11/15 07:24:37;;;;;;;10.90;9.52;;;;;;;;;;5057555;28;20200;-85
2021/11/15 07:27:05;;;;;;;14.90;10.35;;;;;;;;;;5058798;28;20208;-86
2021/11/15 07:29:32;;;;;;;10.10;8.60;;;;;;;;;;5058401;28;20218;-86
2021/11/15 07:32:01;;;;;;;12.98;8.73;;;;;;;;;;5058532;28;20186;-86
2021/11/15 07:34:30;;;;;;;14.85;8.70;;;;;;;;;;5057116;28;20217;-86
2021/11/15 07:36:58;;;;;;;12.48;8.95;;;;;;;;;;5056981;28;20632;-84
2021/11/15 07:39:25;;;;;;;11.15;7.55;;;;;;;;;;5056713;28;20247;-86
2021/11/15 07:41:54;;;;;;;10.50;8.55;;;;;;;;;;5057860;28;20182;-85
2021/11/15 07:44:22;;;;;;;9.40;6.22;;;;;;;;;;5057479;28;20217;-84
2021/11/15 07:46:49;;;;;;;12.25;8.32;;;;;;;;;;5057344;28;20202;-85
2021/11/15 07:49:17;;;;;;;9.68;7.75;;;;;;;;;;5057146;28;20218;-85
2021/11/15 07:51:44;;;;;;;7.82;6.50;;;;;;;;;;5057064;28;20265;-85
2021/11/15 07:54:12;;;;;;;8.57;6.90;;;;;;;;;;5057008;28;20241;-82
2021/11/15 07:56:40;;;;;;;11.40;7.45;;;;;;;;;;5057274;28;20232;-84
2021/11/15 07:59:09;;;;;;;11.00;8.85;;;;;;;;;;5057175;28;20250;-84
2021/11/15 08:01:36;;;;;;;8.82;7.88;;;;;;;;;;5053234;28;20672;-83
2021/11/15 08:04:04;;;;;;;7.88;6.25;;;;;;;;;;5050228;28;20190;-84
2021/11/15 08:06:32;;;;;;;7.55;6.45;;;;;;;;;;5056512;28;20554;-84
2021/11/15 08:08:59;;;;;;;10.98;7.63;;;;;;;;;;5056364;28;20579;-85
2021/11/15 08:11:31;;;;;;;8.63;7.45;;;;;;;;;;5055188;28;20198;-82
2021/11/15 08:14:00;;;;;;;9.15;8.18;;;;;;;;;;5055025;28;20682;-83
2021/11/15 08:16:31;;;;;;;8.55;7.65;;;;;;;;;;5055372;28;20189;-83
2021/11/15 08:18:58;;;;;;;6.93;5.97;;;;;;;;;;5055763;28;20232;-83
2021/11/15 08:21:26;;;;;;;8.25;6.25;;;;;;;;;;5055385;28;20184;-83
2021/11/15 08:23:54;;;;;;;9.70;5.50;;;;;;;;;;5052266;28;20196;-82
2021/11/15 08:26:36;;;;;;;8.38;5.85;;;;;;;;;;5055875;28;20202;-82
2021/11/15 08:29:08;;;;;;;6.63;5.45;;;;;;;;;;5042890;28;20654;-82
2021/11/15 08:31:39;;;;;;;6.80;5.80;;;;;;;;;;5035559;28;20202;-81
2021/11/15 08:34:07;;;;;;;7.90;7.20;;;;;;;;;;5035962;28;20229;-81
2021/11/15 08:36:35;;;;;;;8.73;6.43;;;;;;;;;;5035958;28;20217;-82
2021/11/15 08:39:07;;;;;;;6.30;5.70;;;;;;;;;;5035001;28;20238;-82
2021/11/15 08:41:39;;;;;;;7.45;6.50;;;;;;;;;;5034918;28;20198;-82
2021/11/15 08:44:10;;;;;;;9.13;6.57;;;;;;;;;;5035498;28;20202;-82
2021/11/15 08:46:40;;;;;;;6.97;6.38;;;;;;;;;;5035598;28;20187;-82
2021/11/15 08:49:10;;;;;;;9.55;7.55;;;;;;;;;;5034431;28;20222;-82
2021/11/15 08:51:38;;;;;;;8.68;7.28;;;;;;;;;;5035186;28;20565;-82
2021/11/15 08:54:09;;;;;;;7.38;6.38;;;;;;;;;;5034977;28;20649;-82
2021/11/15 08:56:38;;;;;;;7.72;6.15;;;;;;;;;;5034775;28;20206;-82
2021/11/15 08:59:06;;;;;;;7.68;6.88;;;;;;;;;;5054324;28;20228;-85
2021/11/15 09:01:33;;;;;;;13.98;7.75;;;;;;;;;;5058435;28;20212;-83
2021/11/15 09:04:02;;;;;;;10.23;6.97;;;;;;;;;;5044246;28;20205;-83
2021/11/15 09:06:34;;;;;;;7.88;6.40;;;;;;;;;;5060509;28;20189;-83
2021/11/15 09:09:01;;;;;;;7.72;5.85;;;;;;;;;;5057704;28;20225;-85
2021/11/15 09:11:29;;;;;;;7.47;5.53;;;;;;;;;;5052123;28;20186;-84
2021/11/15 09:13:57;;;;;;;7.53;6.70;;;;;;;;;;5042751;28;20193;-84
2021/11/15 09:16:25;;;;;;;9.45;7.55;;;;;;;;;;5059044;28;20218;-84
2021/11/15 09:18:53;;;;;;;7.95;6.65;;;;;;;;;;5058682;28;20225;-84
2021/11/15 09:21:22;;;;;;;7.97;6.43;;;;;;;;;;5059765;28;20187;-84
2021/11/15 09:23:50;;;;;;;7.85;6.15;;;;;;;;;;5058887;28;20583;-84
2021/11/15 09:26:20;;;;;;;9.52;6.82;;;;;;;;;;5059009;28;20216;-84
2021/11/15 09:28:48;;;;;;;10.55;6.95;;;;;;;;;;5060001;28;20256;-83
2021/11/15 09:31:16;;;;;;;6.97;5.68;;;;;;;;;;5059986;28;20194;-84
2021/11/15 09:33:44;;;;;;;7.85;6.75;;;;;;;;;;5053108;28;20194;-85
2021/11/15 09:36:11;;;;;;;8.77;6.95;;;;;;;;;;5058662;28;20594;-85
2021/11/15 09:38:43;;;;;;;9.88;6.70;;;;;;;;;;5059261;28;20604;-85
2021/11/15 09:41:10;;;;;;;8.32;6.82;;;;;;;;;;5059083;28;20193;-85
2021/11/15 09:43:38;;;;;;;8.05;6.43;;;;;;;;;;5059477;28;20185;-85
2021/11/15 09:46:08;;;;;;;6.18;5.43;;;;;;;;;;5059609;28;20209;-84
2021/11/15 09:48:38;;;;;;;9.02;6.93;;;;;;;;;;5043676;28;20243;-86
2021/11/15 09:51:07;;;;;;;8.45;7.38;;;;;;;;;;5058877;28;20182;-85
2021/11/15 09:53:35;;;;;;;9.77;6.85;;;;;;;;;;5059109;28;20660;-84
2021/11/15 09:56:05;;;;;;;6.85;5.88;;;;;;;;;;5058859;28;20219;-85
2021/11/15 09:58:33;;;;;;;7.07;6.38;;;;;;;;;;5058945;28;20218;-84
2021/11/15 10:01:00;;;;;;;7.43;6.22;;;;;;;;;;5059111;28;20236;-84
2021/11/15 10:03:28;;;;;;;7.43;6.05;;;;;;;;;;5059630;28;20183;-84
2021/11/15 10:05:56;;;;;;;6.20;5.00;;;;;;;;;;5059992;28;20206;-84
2021/11/15 10:08:24;;;;;;;8.35;6.72;;;;;;;;;;5060586;28;20240;-85
2021/11/15 10:10:58;;;;;;;7.28;6.45;;;;;;;;;;5058341;28;20197;-82
2021/11/15 10:13:29;;;;;;;6.43;5.82;;;;;;;;;;5038417;28;20203;-86
2021/11/15 10:16:02;;;;;;;7.95;6.88;;;;;;;;;;5038895;28;20704;-84
2021/11/15 10:18:39;;;;;;;6.18;5.57;;;;;;;;;;5038063;28;20565;-85
2021/11/15 10:21:11;;;;;;;6.10;5.55;;;;;;;;;;5056987;28;20185;-86
2021/11/15 10:23:44;;;;;;;6.72;5.20;;;;;;;;;;5053532;28;20236;-85
2021/11/15 10:26:17;;;;;;;6.68;5.55;;;;;;;;;;5059020;28;20234;-85
2021/11/15 10:28:46;;;;;;;9.55;7.00;;;;;;;;;;5051994;28;20220;-85
2021/11/15 10:31:39;;;;;;;7.15;6.45;;;;;;;;;;5043506;28;20202;-84
2021/11/15 10:34:10;;;;;;;6.88;6.18;;;;;;;;;;5053741;28;20233;-86
2021/11/15 10:37:09;;;;;;;6.75;5.80;;;;;;;;;;5050020;28;20213;-85
2021/11/15 10:39:45;;;;;;;6.85;6.10;;;;;;;;;;5052353;28;20276;-85
2021/11/15 10:42:16;;;;;;;7.22;6.20;;;;;;;;;;5043846;28;20197;-85
2021/11/15 10:44:57;;;;;;;5.82;5.25;;;;;;;;;;5046532;28;20197;-84
2021/11/15 10:47:29;;;;;;;7.88;6.28;;;;;;;;;;5055063;28;20201;-84
2021/11/15 10:50:19;;;;;;;8.35;7.07;;;;;;;;;;5041452;28;20194;-84
2021/11/15 10:53:00;;;;;;;7.40;6.05;;;;;;;;;;5052921;28;20225;-84
2021/11/15 10:55:28;;;;;;;6.65;5.95;;;;;;;;;;5058367;28;20210;-84
2021/11/15 10:57:55;;;;;;;7.60;5.97;;;;;;;;;;5057460;28;20222;-85
2021/11/15 11:00:33;;;;;;;8.25;6.38;;;;;;;;;;5058199;28;20178;-84
2021/11/15 11:03:08;;;;;;;8.77;6.50;;;;;;;;;;5038734;28;20190;-84
2021/11/15 11:05:38;;;;;;;8.05;7.20;;;;;;;;;;5038247;28;20258;-85
2021/11/15 11:08:17;;;;;;;8.73;7.32;;;;;;;;;;5038140;28;20301;-84
2021/11/15 11:11:01;;;;;;;8.35;6.97;;;;;;;;;;5052708;28;20186;-83
2021/11/15 11:13:47;;;;;;;7.85;6.47;;;;;;;;;;5057138;28;20858;-82
2021/11/15 11:16:17;;;;;;;7.60;6.85;;;;;;;;;;5057365;28;20225;-84
2021/11/15 11:18:46;;;;;;;10.20;7.47;;;;;;;;;;5058688;28;20253;-85
2021/11/15 11:21:31;;;;;;;7.43;6.50;;;;;;;;;;5058003;28;20640;-83
2021/11/15 11:24:22;;;;;;;9.43;7.50;;;;;;;;;;5057715;28;20205;-85
2021/11/15 11:26:57;;;;;;;9.70;7.45;;;;;;;;;;5058424;28;20570;-85
2021/11/15 11:29:37;;;;;;;8.88;7.25;;;;;;;;;;5057979;28;20686;-84
2021/11/15 11:32:10;;;;;;;7.68;6.72;;;;;;;;;;5058088;28;20208;-85
2021/11/15 11:34:39;;;;;;;11.57;8.75;;;;;;;;;;5058217;28;20201;-84
2021/11/15 11:37:10;;;;;;;8.55;6.80;;;;;;;;;;5058082;28;20301;-87
2021/11/15 11:39:38;;;;;;;8.88;7.78;;;;;;;;;;5057685;28;20696;-83
2021/11/15 11:42:08;;;;;;;9.30;7.18;;;;;;;;;;5057918;28;20198;-84
2021/11/15 11:44:36;;;;;;;7.82;6.55;;;;;;;;;;5057721;28;20922;-84
2021/11/15 11:47:09;;;;;;;10.25;7.72;;;;;;;;;;5058141;28;20198;-84
2021/11/15 11:49:38;;;;;;;8.68;7.22;;;;;;;;;;5057483;28;20249;-85
2021/11/15 11:52:08;;;;;;;10.55;7.53;;;;;;;;;;5058470;28;20205;-84
2021/11/15 11:54:38;;;;;;;10.52;9.45;;;;;;;;;;5057806;28;20641;-84
2021/11/15 11:57:11;;;;;;;11.27;9.20;;;;;;;;;;5057253;28;20227;-85
2021/11/15 11:59:41;;;;;;;13.15;9.25;;;;;;;;;;5057826;28;20224;-85
2021/11/15 12:02:13;;;;;;;10.68;9.18;;;;;;;;;;5057525;28;20259;-85
2021/11/15 12:04:48;;;;;;;14.18;10.48;;;;;;;;;;5058514;28;20206;-84
2021/11/15 12:07:31;;;;;;;11.02;8.43;;;;;;;;;;5058438;28;20196;-84
2021/11/15 12:10:02;;;;;;;13.30;9.43;;;;;;;;;;5057494;28;20205;-84
2021/11/15 12:12:57;;;;;;;15.60;10.50;;;;;;;;;;5058022;28;20205;-84
2021/11/15 12:15:34;;;;;;;13.13;9.70;;;;;;;;;;5058150;28;20205;-84
2021/11/15 12:18:13;;;;;;;11.20;9.45;;;;;;;;;;5057444;28;20232;-85
2021/11/15 12:21:10;;;;;;;11.93;9.38;;;;;;;;;;5057233;28;20280;-84
2021/11/15 12:23:40;;;;;;;10.75;8.63;;;;;;;;;;5040581;28;20205;-85
2021/11/15 12:26:10;;;;;;;10.82;8.80;;;;;;;;;;5058009;28;20204;-84
2021/11/15 12:28:40;;;;;;;10.02;7.93;;;;;;;;;;5057883;28;20224;-85
2021/11/15 12:31:09;;;;;;;12.80;9.18;;;;;;;;;;5058176;28;20206;-86
2021/11/15 12:33:39;;;;;;;12.93;10.75;;;;;;;;;;5058070;28;20202;-86
2021/11/15 12:36:09;;;;;;;10.80;8.93;;;;;;;;;;5060873;28;20205;-84
2021/11/15 12:38:45;;;;;;;11.40;8.48;;;;;;;;;;5074174;28;20256;-84
2021/11/15 12:41:36;;;;;;;9.40;7.35;;;;;;;;;;5074670;28;20225;-82
2021/11/15 12:44:20;;;;;;;9.82;7.72;;;;;;;;;;5075125;28;20253;-83
2021/11/15 12:46:55;;;;;;;10.48;8.82;;;;;;;;;;5074854;28;20229;-84
2021/11/15 12:49:28;;;;;;;7.93;7.13;;;;;;;;;;5075580;28;20870;-84
2021/11/15 12:52:30;;;;;;;7.85;6.38;;;;;;;;;;5076185;28;20216;-84
2021/11/15 12:55:02;;;;;;;9.93;7.45;;;;;;;;;;5074228;28;20231;-83
2021/11/15 12:57:40;;;;;;;10.25;7.53;;;;;;;;;;5074533;28;20281;-83
2021/11/15 13:00:13;;;;;;;9.63;7.60;;;;;;;;;;5074616;28;20227;-84
2021/11/15 13:02:41;;;;;;;9.32;8.10;;;;;;;;;;5074156;28;20636;-83
2021/11/15 13:05:11;;;;;;;9.18;6.22;;;;;;;;;;5074609;28;20221;-84
2021/11/15 13:07:38;;;;;;;9.57;7.38;;;;;;;;;;5074280;28;20212;-84
2021/11/15 13:10:07;;;;;;;8.52;7.47;;;;;;;;;;5066170;28;20297;-84
2021/11/15 13:12:37;;;;;;;11.10;8.82;;;;;;;;;;5060652;28;20184;-85
2021/11/15 13:15:07;;;;;;;10.43;8.35;;;;;;;;;;5060609;28;20237;-85
2021/11/15 13:17:36;;;;;;;7.43;6.60;;;;;;;;;;5060201;28;20221;-85
2021/11/15 13:20:06;;;;;;;8.48;7.47;;;;;;;;;;5060568;28;20205;-85
2021/11/15 13:22:36;;;;;;;10.15;8.02;;;;;;;;;;5060352;28;20209;-84
2021/11/15 13:25:05;;;;;;;12.30;9.18;;;;;;;;;;5060084;28;20269;-84
2021/11/15 13:27:33;;;;;;;10.45;8.40;;;;;;;;;;5060492;28;20208;-85
2021/11/15 13:30:03;;;;;;;10.60;8.07;;;;;;;;;;5060001;28;20198;-84
2021/11/15 13:32:32;;;;;;;12.52;8.27;;;;;;;;;;5059638;28;20197;-85
2021/11/15 13:34:59;;;;;;;12.05;9.18;;;;;;;;;;5060348;28;20209;-84
2021/11/15 13:37:27;;;;;;;11.70;9.40;;;;;;;;;;5059658;28;20209;-84
2021/11/15 13:39:56;;;;;;;9.75;8.65;;;;;;;;;;5059517;28;20233;-85
2021/11/15 13:42:26;;;;;;;10.13;9.00;;;;;;;;;;5060538;28;20292;-85
2021/11/15 13:44:54;;;;;;;12.07;10.43;;;;;;;;;;5060670;28;20280;-85
2021/11/15 13:47:24;;;;;;;9.90;8.25;;;;;;;;;;5059215;28;20206;-84
2021/11/15 13:49:51;;;;;;;12.50;8.77;;;;;;;;;;5060208;28;20229;-85
2021/11/15 13:52:19;;;;;;;10.18;8.98;;;;;;;;;;5060024;28;20262;-85
2021/11/15 13:54:49;;;;;;;10.23;8.65;;;;;;;;;;5059850;28;20212;-84
2021/11/15 13:57:24;;;;;;;9.43;8.27;;;;;;;;;;5060275;28;20289;-84
2021/11/15 13:59:52;;;;;;;11.93;9.45;;;;;;;;;;5062174;28;20266;-84
2021/11/15 14:02:19;;;;;;;12.90;9.40;;;;;;;;;;5061221;28;20272;-84
2021/11/15 14:04:47;;;;;;;11.57;9.38;;;;;;;;;;5064195;28;20216;-83
2021/11/15 14:07:18;;;;;;;13.10;11.20;;;;;;;;;;5063289;28;20197;-85
2021/11/15 14:09:46;;;;;;;15.02;11.65;;;;;;;;;;5059510;28;20275;-84
2021/11/15 14:12:13;;;;;;;13.30;9.13;;;;;;;;;;5059841;28;20581;-84
2021/11/15 14:14:43;;;;;;;11.38;9.90;;;;;;;;;;5059046;28;20201;-84
2021/11/15 14:17:11;;;;;;;12.45;10.73;;;;;;;;;;5059855;28;20695;-84
2021/11/15 14:19:39;;;;;;;12.55;9.40;;;;;;;;;;5059473;28;20225;-84
2021/11/15 14:22:07;;;;;;;9.32;7.78;;;;;;;;;;5058404;28;20215;-85
2021/11/15 14:24:39;;;;;;;11.18;9.18;;;;;;;;;;5059045;28;20578;-86
2021/11/15 14:27:07;;;;;;;11.77;8.77;;;;;;;;;;5058553;28;20574;-85
2021/11/15 14:29:35;;;;;;;10.85;9.75;;;;;;;;;;5058508;28;20232;-84
2021/11/15 14:32:06;;;;;;;11.07;8.82;;;;;;;;;;5058984;28;20194;-85
2021/11/15 14:34:35;;;;;;;9.40;7.47;;;;;;;;;;5059000;28;20592;-85
2021/11/15 14:37:03;;;;;;;12.82;10.93;;;;;;;;;;5058944;28;20208;-85
2021/11/15 14:39:30;;;;;;;8.55;6.90;;;;;;;;;;5059053;28;20233;-84
2021/11/15 14:41:58;;;;;;;11.10;8.77;;;;;;;;;;5058868;28;20624;-84
2021/11/15 14:44:25;;;;;;;9.10;7.70;;;;;;;;;;5058781;28;20277;-84
2021/11/15 14:46:52;;;;;;;9.10;7.90;;;;;;;;;;5058616;28;20205;-84
2021/11/15 14:49:21;;;;;;;9.05;7.22;;;;;;;;;;5058566;28;20236;-84
2021/11/15 14:51:49;;;;;;;11.30;8.70;;;;;;;;;;5058752;28;20656;-84
2021/11/15 14:54:17;;;;;;;13.88;11.00;;;;;;;;;;5058366;28;20205;-84